sensor_id;sensor_type;location;lat;lon;timestamp;P1;durP1;ratioP1;P2;durP2;ratioP2
32295;SDS011;18781;51.550;5.418;2024-03-29T00:01:58;7.05;;;1.20;;
32295;SDS011;18781;51.550;5.418;2024-03-29T00:04:26;4.38;;;1.00;;
32295;SDS011;18781;51.550;5.418;2024-03-29T00:06:51;6.75;;;1.10;;
32295;SDS011;18781;51.550;5.418;2024-03-29T00:09:17;6.07;;;1.20;;
32295;SDS011;18781;51.550;5.418;2024-03-29T00:11:43;10.75;;;1.38;;
32295;SDS011;18781;51.550;5.418;2024-03-29T00:14:08;5.32;;;1.27;;
32295;SDS011;18781;51.550;5.418;2024-03-29T00:16:34;4.65;;;1.50;;
32295;SDS011;18781;51.550;5.418;2024-03-29T00:19:00;3.63;;;1.20;;
32295;SDS011;18781;51.550;5.418;2024-03-29T00:21:25;4.65;;;1.00;;
32295;SDS011;18781;51.550;5.418;2024-03-29T00:23:51;4.90;;;1.10;;
32295;SDS011;18781;51.550;5.418;2024-03-29T00:26:16;5.45;;;1.20;;
32295;SDS011;18781;51.550;5.418;2024-03-29T00:28:42;11.85;;;1.58;;
32295;SDS011;18781;51.550;5.418;2024-03-29T00:31:08;4.60;;;1.25;;
32295;SDS011;18781;51.550;5.418;2024-03-29T00:33:34;4.18;;;0.93;;
32295;SDS011;18781;51.550;5.418;2024-03-29T00:36:00;6.10;;;1.33;;
32295;SDS011;18781;51.550;5.418;2024-03-29T00:38:26;6.32;;;1.20;;
32295;SDS011;18781;51.550;5.418;2024-03-29T00:40:51;7.68;;;1.10;;
32295;SDS011;18781;51.550;5.418;2024-03-29T00:43:17;3.38;;;0.82;;
32295;SDS011;18781;51.550;5.418;2024-03-29T00:45:42;6.25;;;1.55;;
32295;SDS011;18781;51.550;5.418;2024-03-29T00:48:08;5.78;;;0.90;;
32295;SDS011;18781;51.550;5.418;2024-03-29T00:50:34;5.32;;;1.20;;
32295;SDS011;18781;51.550;5.418;2024-03-29T00:53:00;8.77;;;1.33;;
32295;SDS011;18781;51.550;5.418;2024-03-29T00:55:25;7.00;;;1.30;;
32295;SDS011;18781;51.550;5.418;2024-03-29T00:57:51;9.07;;;1.50;;
32295;SDS011;18781;51.550;5.418;2024-03-29T01:00:17;6.72;;;1.17;;
32295;SDS011;18781;51.550;5.418;2024-03-29T01:02:45;3.05;;;1.25;;
32295;SDS011;18781;51.550;5.418;2024-03-29T01:05:11;5.43;;;1.20;;
32295;SDS011;18781;51.550;5.418;2024-03-29T01:07:37;6.63;;;1.48;;
32295;SDS011;18781;51.550;5.418;2024-03-29T01:10:05;4.30;;;1.02;;
32295;SDS011;18781;51.550;5.418;2024-03-29T01:12:33;4.18;;;1.10;;
32295;SDS011;18781;51.550;5.418;2024-03-29T01:15:00;4.95;;;1.02;;
32295;SDS011;18781;51.550;5.418;2024-03-29T01:17:25;5.35;;;1.33;;
32295;SDS011;18781;51.550;5.418;2024-03-29T01:19:51;7.60;;;1.33;;
32295;SDS011;18781;51.550;5.418;2024-03-29T01:22:16;4.57;;;0.93;;
32295;SDS011;18781;51.550;5.418;2024-03-29T01:24:42;4.90;;;1.30;;
32295;SDS011;18781;51.550;5.418;2024-03-29T01:27:08;5.43;;;1.42;;
32295;SDS011;18781;51.550;5.418;2024-03-29T01:29:33;4.38;;;1.13;;
32295;SDS011;18781;51.550;5.418;2024-03-29T01:31:59;6.32;;;1.40;;
32295;SDS011;18781;51.550;5.418;2024-03-29T01:34:24;4.18;;;0.90;;
32295;SDS011;18781;51.550;5.418;2024-03-29T01:36:50;3.35;;;1.08;;
32295;SDS011;18781;51.550;5.418;2024-03-29T01:39:15;6.78;;;1.13;;
32295;SDS011;18781;51.550;5.418;2024-03-29T01:41:44;4.05;;;0.82;;
32295;SDS011;18781;51.550;5.418;2024-03-29T01:44:10;10.20;;;0.90;;
32295;SDS011;18781;51.550;5.418;2024-03-29T01:46:36;4.78;;;1.15;;
32295;SDS011;18781;51.550;5.418;2024-03-29T01:49:02;7.57;;;1.05;;
32295;SDS011;18781;51.550;5.418;2024-03-29T01:51:30;5.43;;;1.23;;
32295;SDS011;18781;51.550;5.418;2024-03-29T01:53:56;5.22;;;1.23;;
32295;SDS011;18781;51.550;5.418;2024-03-29T01:56:23;5.38;;;1.00;;
32295;SDS011;18781;51.550;5.418;2024-03-29T01:58:51;6.72;;;1.52;;
32295;SDS011;18781;51.550;5.418;2024-03-29T02:01:19;4.00;;;1.03;;
32295;SDS011;18781;51.550;5.418;2024-03-29T02:03:46;8.25;;;1.30;;
32295;SDS011;18781;51.550;5.418;2024-03-29T02:06:12;5.78;;;1.30;;
32295;SDS011;18781;51.550;5.418;2024-03-29T02:08:38;5.05;;;0.90;;
32295;SDS011;18781;51.550;5.418;2024-03-29T02:11:04;4.05;;;0.90;;
32295;SDS011;18781;51.550;5.418;2024-03-29T02:13:31;5.03;;;1.20;;
32295;SDS011;18781;51.550;5.418;2024-03-29T02:15:57;6.43;;;1.20;;
32295;SDS011;18781;51.550;5.418;2024-03-29T02:18:23;5.38;;;1.20;;
32295;SDS011;18781;51.550;5.418;2024-03-29T02:20:48;6.88;;;1.27;;
32295;SDS011;18781;51.550;5.418;2024-03-29T02:23:26;9.13;;;1.50;;
32295;SDS011;18781;51.550;5.418;2024-03-29T02:25:53;6.43;;;1.35;;
32295;SDS011;18781;51.550;5.418;2024-03-29T02:28:19;4.68;;;0.98;;
32295;SDS011;18781;51.550;5.418;2024-03-29T02:30:46;8.48;;;1.63;;
32295;SDS011;18781;51.550;5.418;2024-03-29T02:33:12;2.97;;;1.00;;
32295;SDS011;18781;51.550;5.418;2024-03-29T02:35:38;3.38;;;1.00;;
32295;SDS011;18781;51.550;5.418;2024-03-29T02:38:04;8.57;;;1.10;;
32295;SDS011;18781;51.550;5.418;2024-03-29T02:40:29;3.20;;;1.17;;
32295;SDS011;18781;51.550;5.418;2024-03-29T02:42:55;6.18;;;1.13;;
32295;SDS011;18781;51.550;5.418;2024-03-29T02:45:20;4.18;;;1.23;;
32295;SDS011;18781;51.550;5.418;2024-03-29T02:47:46;4.30;;;0.90;;
32295;SDS011;18781;51.550;5.418;2024-03-29T02:50:13;5.55;;;1.25;;
32295;SDS011;18781;51.550;5.418;2024-03-29T02:52:40;7.53;;;1.00;;
32295;SDS011;18781;51.550;5.418;2024-03-29T02:55:05;4.60;;;1.05;;
32295;SDS011;18781;51.550;5.418;2024-03-29T02:57:31;3.60;;;1.00;;
32295;SDS011;18781;51.550;5.418;2024-03-29T02:59:57;4.40;;;1.00;;
32295;SDS011;18781;51.550;5.418;2024-03-29T03:02:22;3.35;;;0.82;;
32295;SDS011;18781;51.550;5.418;2024-03-29T03:04:48;6.00;;;1.10;;
32295;SDS011;18781;51.550;5.418;2024-03-29T03:07:14;6.68;;;1.02;;
32295;SDS011;18781;51.550;5.418;2024-03-29T03:09:58;3.20;;;1.38;;
32295;SDS011;18781;51.550;5.418;2024-03-29T03:12:42;2.42;;;0.88;;
32295;SDS011;18781;51.550;5.418;2024-03-29T03:15:08;2.15;;;0.70;;
32295;SDS011;18781;51.550;5.418;2024-03-29T03:17:34;4.13;;;1.27;;
32295;SDS011;18781;51.550;5.418;2024-03-29T03:20:00;3.80;;;1.10;;
32295;SDS011;18781;51.550;5.418;2024-03-29T03:22:25;1.45;;;0.90;;
32295;SDS011;18781;51.550;5.418;2024-03-29T03:24:51;6.57;;;1.50;;
32295;SDS011;18781;51.550;5.418;2024-03-29T03:27:16;4.13;;;1.00;;
32295;SDS011;18781;51.550;5.418;2024-03-29T03:29:42;3.20;;;0.80;;
32295;SDS011;18781;51.550;5.418;2024-03-29T03:32:08;3.60;;;1.02;;
32295;SDS011;18781;51.550;5.418;2024-03-29T03:34:34;6.43;;;0.88;;
32295;SDS011;18781;51.550;5.418;2024-03-29T03:36:59;6.07;;;1.00;;
32295;SDS011;18781;51.550;5.418;2024-03-29T03:39:25;2.60;;;1.02;;
32295;SDS011;18781;51.550;5.418;2024-03-29T03:41:51;2.58;;;0.77;;
32295;SDS011;18781;51.550;5.418;2024-03-29T03:44:16;3.00;;;0.77;;
32295;SDS011;18781;51.550;5.418;2024-03-29T03:46:42;2.10;;;0.70;;
32295;SDS011;18781;51.550;5.418;2024-03-29T03:49:08;2.78;;;0.88;;
32295;SDS011;18781;51.550;5.418;2024-03-29T03:51:34;2.05;;;0.75;;
32295;SDS011;18781;51.550;5.418;2024-03-29T03:53:59;3.05;;;0.90;;
32295;SDS011;18781;51.550;5.418;2024-03-29T03:56:25;3.35;;;0.90;;
32295;SDS011;18781;51.550;5.418;2024-03-29T03:58:51;6.85;;;0.90;;
32295;SDS011;18781;51.550;5.418;2024-03-29T04:01:16;5.63;;;1.00;;
32295;SDS011;18781;51.550;5.418;2024-03-29T04:03:42;3.63;;;1.30;;
32295;SDS011;18781;51.550;5.418;2024-03-29T04:06:08;3.90;;;1.05;;
32295;SDS011;18781;51.550;5.418;2024-03-29T04:08:33;1.83;;;0.60;;
32295;SDS011;18781;51.550;5.418;2024-03-29T04:11:05;2.63;;;0.80;;
32295;SDS011;18781;51.550;5.418;2024-03-29T04:13:31;4.57;;;0.95;;
32295;SDS011;18781;51.550;5.418;2024-03-29T04:16:03;2.60;;;0.95;;
32295;SDS011;18781;51.550;5.418;2024-03-29T04:18:29;3.08;;;0.70;;
32295;SDS011;18781;51.550;5.418;2024-03-29T04:20:58;3.28;;;0.95;;
32295;SDS011;18781;51.550;5.418;2024-03-29T04:25:51;1.70;;;0.70;;
32295;SDS011;18781;51.550;5.418;2024-03-29T04:28:20;8.02;;;1.13;;
32295;SDS011;18781;51.550;5.418;2024-03-29T04:30:56;3.35;;;0.80;;
32295;SDS011;18781;51.550;5.418;2024-03-29T04:33:23;3.97;;;0.85;;
32295;SDS011;18781;51.550;5.418;2024-03-29T04:38:22;4.05;;;0.90;;
32295;SDS011;18781;51.550;5.418;2024-03-29T04:40:48;2.80;;;0.95;;
32295;SDS011;18781;51.550;5.418;2024-03-29T04:43:15;1.67;;;0.70;;
32295;SDS011;18781;51.550;5.418;2024-03-29T04:45:42;2.97;;;0.75;;
32295;SDS011;18781;51.550;5.418;2024-03-29T04:48:11;4.70;;;1.30;;
32295;SDS011;18781;51.550;5.418;2024-03-29T04:50:37;2.55;;;0.88;;
32295;SDS011;18781;51.550;5.418;2024-03-29T04:53:03;4.43;;;1.23;;
32295;SDS011;18781;51.550;5.418;2024-03-29T04:55:29;3.40;;;0.90;;
32295;SDS011;18781;51.550;5.418;2024-03-29T04:57:55;4.28;;;0.63;;
32295;SDS011;18781;51.550;5.418;2024-03-29T05:00:20;6.30;;;0.73;;
32295;SDS011;18781;51.550;5.418;2024-03-29T05:02:46;2.92;;;1.00;;
32295;SDS011;18781;51.550;5.418;2024-03-29T05:05:12;2.45;;;0.90;;
32295;SDS011;18781;51.550;5.418;2024-03-29T05:07:37;2.05;;;0.70;;
32295;SDS011;18781;51.550;5.418;2024-03-29T05:10:03;6.55;;;0.88;;
32295;SDS011;18781;51.550;5.418;2024-03-29T05:12:32;1.98;;;0.90;;
32295;SDS011;18781;51.550;5.418;2024-03-29T05:14:57;3.35;;;0.77;;
32295;SDS011;18781;51.550;5.418;2024-03-29T05:17:23;5.57;;;1.25;;
32295;SDS011;18781;51.550;5.418;2024-03-29T05:19:52;4.67;;;1.07;;
32295;SDS011;18781;51.550;5.418;2024-03-29T05:22:18;2.95;;;0.98;;
32295;SDS011;18781;51.550;5.418;2024-03-29T05:24:43;4.60;;;0.65;;
32295;SDS011;18781;51.550;5.418;2024-03-29T05:27:11;3.55;;;1.15;;
32295;SDS011;18781;51.550;5.418;2024-03-29T05:29:37;4.68;;;1.00;;
32295;SDS011;18781;51.550;5.418;2024-03-29T05:32:03;3.78;;;0.90;;
32295;SDS011;18781;51.550;5.418;2024-03-29T05:34:29;2.47;;;0.90;;
32295;SDS011;18781;51.550;5.418;2024-03-29T05:36:55;4.70;;;1.02;;
32295;SDS011;18781;51.550;5.418;2024-03-29T05:39:21;2.10;;;0.88;;
32295;SDS011;18781;51.550;5.418;2024-03-29T05:41:46;1.08;;;0.52;;
32295;SDS011;18781;51.550;5.418;2024-03-29T05:44:12;3.30;;;0.88;;
32295;SDS011;18781;51.550;5.418;2024-03-29T05:46:38;2.00;;;0.70;;
32295;SDS011;18781;51.550;5.418;2024-03-29T05:49:05;3.03;;;0.90;;
32295;SDS011;18781;51.550;5.418;2024-03-29T05:51:31;2.70;;;0.88;;
32295;SDS011;18781;51.550;5.418;2024-03-29T05:53:59;3.92;;;1.10;;
32295;SDS011;18781;51.550;5.418;2024-03-29T05:56:24;1.75;;;0.73;;
32295;SDS011;18781;51.550;5.418;2024-03-29T05:58:50;3.60;;;0.93;;
32295;SDS011;18781;51.550;5.418;2024-03-29T06:01:16;1.75;;;0.70;;
32295;SDS011;18781;51.550;5.418;2024-03-29T06:03:41;2.72;;;0.60;;
32295;SDS011;18781;51.550;5.418;2024-03-29T06:06:07;2.08;;;0.80;;
32295;SDS011;18781;51.550;5.418;2024-03-29T06:11:02;0.80;;;0.60;;
32295;SDS011;18781;51.550;5.418;2024-03-29T06:13:28;2.45;;;0.80;;
32295;SDS011;18781;51.550;5.418;2024-03-29T06:16:13;4.00;;;0.75;;
32295;SDS011;18781;51.550;5.418;2024-03-29T06:18:57;3.80;;;1.10;;
32295;SDS011;18781;51.550;5.418;2024-03-29T06:21:23;3.35;;;0.80;;
32295;SDS011;18781;51.550;5.418;2024-03-29T06:23:49;3.20;;;1.05;;
32295;SDS011;18781;51.550;5.418;2024-03-29T06:26:14;3.58;;;0.90;;
32295;SDS011;18781;51.550;5.418;2024-03-29T06:28:40;1.85;;;0.65;;
32295;SDS011;18781;51.550;5.418;2024-03-29T06:31:05;1.40;;;0.60;;
32295;SDS011;18781;51.550;5.418;2024-03-29T06:33:31;2.67;;;0.70;;
32295;SDS011;18781;51.550;5.418;2024-03-29T06:35:57;3.85;;;0.95;;
32295;SDS011;18781;51.550;5.418;2024-03-29T06:38:22;3.50;;;1.00;;
32295;SDS011;18781;51.550;5.418;2024-03-29T06:40:48;2.83;;;0.82;;
32295;SDS011;18781;51.550;5.418;2024-03-29T06:43:13;4.22;;;0.90;;
32295;SDS011;18781;51.550;5.418;2024-03-29T06:45:40;3.50;;;1.05;;
32295;SDS011;18781;51.550;5.418;2024-03-29T06:48:07;2.23;;;1.00;;
32295;SDS011;18781;51.550;5.418;2024-03-29T06:50:33;2.60;;;1.10;;
32295;SDS011;18781;51.550;5.418;2024-03-29T06:52:59;5.18;;;1.40;;
32295;SDS011;18781;51.550;5.418;2024-03-29T06:55:25;5.18;;;1.48;;
32295;SDS011;18781;51.550;5.418;2024-03-29T06:57:51;2.40;;;0.82;;
32295;SDS011;18781;51.550;5.418;2024-03-29T07:00:16;4.43;;;1.00;;
32295;SDS011;18781;51.550;5.418;2024-03-29T07:02:42;3.47;;;0.82;;
32295;SDS011;18781;51.550;5.418;2024-03-29T07:05:08;2.25;;;0.80;;
32295;SDS011;18781;51.550;5.418;2024-03-29T07:07:36;3.55;;;1.10;;
32295;SDS011;18781;51.550;5.418;2024-03-29T07:10:02;4.20;;;1.17;;
32295;SDS011;18781;51.550;5.418;2024-03-29T07:12:28;4.82;;;1.48;;
32295;SDS011;18781;51.550;5.418;2024-03-29T07:14:54;2.63;;;0.77;;
32295;SDS011;18781;51.550;5.418;2024-03-29T07:17:19;2.33;;;0.90;;
32295;SDS011;18781;51.550;5.418;2024-03-29T07:19:45;5.15;;;1.08;;
32295;SDS011;18781;51.550;5.418;2024-03-29T07:22:11;3.17;;;1.15;;
32295;SDS011;18781;51.550;5.418;2024-03-29T07:24:36;4.03;;;1.30;;
32295;SDS011;18781;51.550;5.418;2024-03-29T07:27:03;3.22;;;0.90;;
32295;SDS011;18781;51.550;5.418;2024-03-29T07:29:28;4.95;;;1.20;;
32295;SDS011;18781;51.550;5.418;2024-03-29T07:31:54;4.43;;;1.10;;
32295;SDS011;18781;51.550;5.418;2024-03-29T07:34:20;2.33;;;1.02;;
32295;SDS011;18781;51.550;5.418;2024-03-29T07:36:45;2.40;;;1.13;;
32295;SDS011;18781;51.550;5.418;2024-03-29T07:39:11;5.07;;;1.05;;
32295;SDS011;18781;51.550;5.418;2024-03-29T07:41:37;2.35;;;0.82;;
32295;SDS011;18781;51.550;5.418;2024-03-29T07:44:02;4.00;;;0.90;;
32295;SDS011;18781;51.550;5.418;2024-03-29T07:46:32;3.05;;;0.85;;
32295;SDS011;18781;51.550;5.418;2024-03-29T07:48:59;2.58;;;0.90;;
32295;SDS011;18781;51.550;5.418;2024-03-29T07:51:25;2.67;;;0.80;;
32295;SDS011;18781;51.550;5.418;2024-03-29T07:53:50;1.95;;;1.00;;
32295;SDS011;18781;51.550;5.418;2024-03-29T07:56:16;3.00;;;1.20;;
32295;SDS011;18781;51.550;5.418;2024-03-29T07:58:42;3.25;;;1.05;;
32295;SDS011;18781;51.550;5.418;2024-03-29T08:01:08;4.70;;;1.08;;
32295;SDS011;18781;51.550;5.418;2024-03-29T08:03:33;5.05;;;1.10;;
32295;SDS011;18781;51.550;5.418;2024-03-29T08:08:29;4.55;;;1.40;;
32295;SDS011;18781;51.550;5.418;2024-03-29T08:10:55;3.05;;;1.15;;
32295;SDS011;18781;51.550;5.418;2024-03-29T08:13:21;4.10;;;1.40;;
32295;SDS011;18781;51.550;5.418;2024-03-29T08:15:47;6.78;;;1.60;;
32295;SDS011;18781;51.550;5.418;2024-03-29T08:18:13;3.55;;;1.50;;
32295;SDS011;18781;51.550;5.418;2024-03-29T08:20:39;4.82;;;1.10;;
32295;SDS011;18781;51.550;5.418;2024-03-29T08:23:05;2.80;;;1.10;;
32295;SDS011;18781;51.550;5.418;2024-03-29T08:25:30;4.65;;;1.13;;
32295;SDS011;18781;51.550;5.418;2024-03-29T08:27:56;4.15;;;1.10;;
32295;SDS011;18781;51.550;5.418;2024-03-29T08:30:25;2.30;;;1.05;;
32295;SDS011;18781;51.550;5.418;2024-03-29T08:32:51;3.78;;;1.30;;
32295;SDS011;18781;51.550;5.418;2024-03-29T08:35:18;5.28;;;1.13;;
32295;SDS011;18781;51.550;5.418;2024-03-29T08:37:45;2.88;;;1.23;;
32295;SDS011;18781;51.550;5.418;2024-03-29T08:40:10;5.57;;;1.40;;
32295;SDS011;18781;51.550;5.418;2024-03-29T08:42:36;2.72;;;1.40;;
32295;SDS011;18781;51.550;5.418;2024-03-29T08:45:03;4.70;;;1.48;;
32295;SDS011;18781;51.550;5.418;2024-03-29T08:47:31;3.30;;;1.48;;
32295;SDS011;18781;51.550;5.418;2024-03-29T08:49:56;6.22;;;1.55;;
32295;SDS011;18781;51.550;5.418;2024-03-29T08:52:22;5.13;;;1.42;;
32295;SDS011;18781;51.550;5.418;2024-03-29T08:54:48;2.65;;;1.50;;
32295;SDS011;18781;51.550;5.418;2024-03-29T08:57:13;3.17;;;1.50;;
32295;SDS011;18781;51.550;5.418;2024-03-29T08:59:39;5.65;;;1.48;;
32295;SDS011;18781;51.550;5.418;2024-03-29T09:02:06;7.40;;;1.45;;
32295;SDS011;18781;51.550;5.418;2024-03-29T09:04:32;4.38;;;1.40;;
32295;SDS011;18781;51.550;5.418;2024-03-29T09:06:59;5.57;;;1.90;;
32295;SDS011;18781;51.550;5.418;2024-03-29T09:09:27;4.40;;;1.60;;
32295;SDS011;18781;51.550;5.418;2024-03-29T09:11:53;2.92;;;1.45;;
32295;SDS011;18781;51.550;5.418;2024-03-29T09:14:19;5.75;;;2.05;;
32295;SDS011;18781;51.550;5.418;2024-03-29T09:16:45;12.40;;;1.77;;
32295;SDS011;18781;51.550;5.418;2024-03-29T09:19:12;3.92;;;1.50;;
32295;SDS011;18781;51.550;5.418;2024-03-29T09:21:39;5.40;;;1.63;;
32295;SDS011;18781;51.550;5.418;2024-03-29T09:24:05;6.90;;;1.85;;
32295;SDS011;18781;51.550;5.418;2024-03-29T09:26:31;6.03;;;1.50;;
32295;SDS011;18781;51.550;5.418;2024-03-29T09:28:57;5.05;;;1.90;;
32295;SDS011;18781;51.550;5.418;2024-03-29T09:31:23;8.18;;;2.00;;
32295;SDS011;18781;51.550;5.418;2024-03-29T09:33:49;5.53;;;1.75;;
32295;SDS011;18781;51.550;5.418;2024-03-29T09:36:20;3.15;;;1.70;;
32295;SDS011;18781;51.550;5.418;2024-03-29T09:38:48;2.20;;;1.50;;
32295;SDS011;18781;51.550;5.418;2024-03-29T09:41:17;6.32;;;1.70;;
32295;SDS011;18781;51.550;5.418;2024-03-29T09:43:44;7.70;;;1.90;;
32295;SDS011;18781;51.550;5.418;2024-03-29T09:46:11;7.95;;;1.80;;
32295;SDS011;18781;51.550;5.418;2024-03-29T09:48:41;3.30;;;1.67;;
32295;SDS011;18781;51.550;5.418;2024-03-29T09:51:10;4.45;;;1.75;;
32295;SDS011;18781;51.550;5.418;2024-03-29T09:53:39;6.57;;;1.88;;
32295;SDS011;18781;51.550;5.418;2024-03-29T09:56:07;4.93;;;1.77;;
32295;SDS011;18781;51.550;5.418;2024-03-29T09:58:34;4.20;;;1.70;;
32295;SDS011;18781;51.550;5.418;2024-03-29T10:01:02;3.17;;;1.80;;
32295;SDS011;18781;51.550;5.418;2024-03-29T10:03:29;6.25;;;2.15;;
32295;SDS011;18781;51.550;5.418;2024-03-29T10:05:59;8.02;;;1.80;;
32295;SDS011;18781;51.550;5.418;2024-03-29T10:08:28;6.82;;;1.90;;
32295;SDS011;18781;51.550;5.418;2024-03-29T10:10:58;8.20;;;2.00;;
32295;SDS011;18781;51.550;5.418;2024-03-29T10:13:23;5.65;;;1.83;;
32295;SDS011;18781;51.550;5.418;2024-03-29T10:15:49;4.22;;;2.03;;
32295;SDS011;18781;51.550;5.418;2024-03-29T10:18:25;5.50;;;1.80;;
32295;SDS011;18781;51.550;5.418;2024-03-29T10:21:25;4.53;;;1.65;;
32295;SDS011;18781;51.550;5.418;2024-03-29T10:23:49;6.55;;;1.85;;
32295;SDS011;18781;51.550;5.418;2024-03-29T10:26:16;4.03;;;1.90;;
32295;SDS011;18781;51.550;5.418;2024-03-29T10:28:43;5.32;;;1.90;;
32295;SDS011;18781;51.550;5.418;2024-03-29T10:31:12;3.15;;;1.40;;
32295;SDS011;18781;51.550;5.418;2024-03-29T10:33:39;7.45;;;1.77;;
32295;SDS011;18781;51.550;5.418;2024-03-29T10:36:07;3.22;;;1.30;;
32295;SDS011;18781;51.550;5.418;2024-03-29T10:38:34;5.55;;;1.63;;
32295;SDS011;18781;51.550;5.418;2024-03-29T10:41:01;3.03;;;1.40;;
32295;SDS011;18781;51.550;5.418;2024-03-29T10:43:28;2.25;;;1.00;;
32295;SDS011;18781;51.550;5.418;2024-03-29T10:45:55;4.13;;;1.25;;
32295;SDS011;18781;51.550;5.418;2024-03-29T10:48:24;3.13;;;1.30;;
32295;SDS011;18781;51.550;5.418;2024-03-29T10:50:51;4.10;;;1.23;;
32295;SDS011;18781;51.550;5.418;2024-03-29T10:53:23;2.47;;;1.20;;
32295;SDS011;18781;51.550;5.418;2024-03-29T10:55:56;2.80;;;0.90;;
32295;SDS011;18781;51.550;5.418;2024-03-29T10:58:33;2.75;;;0.90;;
32295;SDS011;18781;51.550;5.418;2024-03-29T11:01:03;2.40;;;0.98;;
32295;SDS011;18781;51.550;5.418;2024-03-29T11:06:32;4.25;;;1.10;;
32295;SDS011;18781;51.550;5.418;2024-03-29T11:09:02;11.38;;;1.77;;
32295;SDS011;18781;51.550;5.418;2024-03-29T11:11:31;6.63;;;1.17;;
32295;SDS011;18781;51.550;5.418;2024-03-29T11:14:45;3.17;;;1.10;;
32295;SDS011;18781;51.550;5.418;2024-03-29T11:16:54;6.55;;;1.20;;
32295;SDS011;18781;51.550;5.418;2024-03-29T11:19:23;2.53;;;1.00;;
32295;SDS011;18781;51.550;5.418;2024-03-29T11:21:49;3.08;;;1.10;;
32295;SDS011;18781;51.550;5.418;2024-03-29T11:24:16;3.90;;;1.27;;
32295;SDS011;18781;51.550;5.418;2024-03-29T11:26:44;4.10;;;1.33;;
32295;SDS011;18781;51.550;5.418;2024-03-29T11:29:20;2.75;;;1.08;;
32295;SDS011;18781;51.550;5.418;2024-03-29T11:31:46;2.30;;;1.08;;
32295;SDS011;18781;51.550;5.418;2024-03-29T11:34:14;3.85;;;1.27;;
32295;SDS011;18781;51.550;5.418;2024-03-29T11:36:43;3.13;;;0.80;;
32295;SDS011;18781;51.550;5.418;2024-03-29T11:39:19;2.45;;;0.90;;
32295;SDS011;18781;51.550;5.418;2024-03-29T11:41:48;1.77;;;0.88;;
32295;SDS011;18781;51.550;5.418;2024-03-29T11:44:15;7.53;;;0.93;;
32295;SDS011;18781;51.550;5.418;2024-03-29T11:46:42;1.55;;;0.80;;
32295;SDS011;18781;51.550;5.418;2024-03-29T11:49:09;1.45;;;0.80;;
32295;SDS011;18781;51.550;5.418;2024-03-29T11:51:35;1.48;;;0.85;;
32295;SDS011;18781;51.550;5.418;2024-03-29T11:54:01;2.20;;;0.80;;
32295;SDS011;18781;51.550;5.418;2024-03-29T11:56:27;1.17;;;0.88;;
32295;SDS011;18781;51.550;5.418;2024-03-29T11:58:53;3.03;;;0.63;;
32295;SDS011;18781;51.550;5.418;2024-03-29T12:01:24;2.17;;;0.90;;
32295;SDS011;18781;51.550;5.418;2024-03-29T12:03:50;1.98;;;0.70;;
32295;SDS011;18781;51.550;5.418;2024-03-29T12:06:16;3.03;;;0.50;;
32295;SDS011;18781;51.550;5.418;2024-03-29T12:08:43;1.55;;;0.73;;
32295;SDS011;18781;51.550;5.418;2024-03-29T12:11:09;3.13;;;0.93;;
32295;SDS011;18781;51.550;5.418;2024-03-29T12:13:35;4.68;;;0.90;;
32295;SDS011;18781;51.550;5.418;2024-03-29T12:16:01;4.55;;;0.85;;
32295;SDS011;18781;51.550;5.418;2024-03-29T12:18:28;2.00;;;0.70;;
32295;SDS011;18781;51.550;5.418;2024-03-29T12:20:56;0.98;;;0.60;;
32295;SDS011;18781;51.550;5.418;2024-03-29T12:23:22;1.50;;;0.60;;
32295;SDS011;18781;51.550;5.418;2024-03-29T12:25:49;1.83;;;0.80;;
32295;SDS011;18781;51.550;5.418;2024-03-29T12:28:17;1.73;;;0.90;;
32295;SDS011;18781;51.550;5.418;2024-03-29T12:30:43;0.88;;;0.50;;
32295;SDS011;18781;51.550;5.418;2024-03-29T12:33:12;4.97;;;0.80;;
32295;SDS011;18781;51.550;5.418;2024-03-29T12:35:45;2.55;;;0.80;;
32295;SDS011;18781;51.550;5.418;2024-03-29T12:38:16;2.13;;;0.52;;
32295;SDS011;18781;51.550;5.418;2024-03-29T12:40:43;3.00;;;0.52;;
32295;SDS011;18781;51.550;5.418;2024-03-29T12:43:13;1.20;;;0.60;;
32295;SDS011;18781;51.550;5.418;2024-03-29T12:45:45;1.13;;;0.50;;
32295;SDS011;18781;51.550;5.418;2024-03-29T12:48:14;1.55;;;0.68;;
32295;SDS011;18781;51.550;5.418;2024-03-29T12:50:41;1.25;;;0.50;;
32295;SDS011;18781;51.550;5.418;2024-03-29T12:53:09;1.88;;;0.50;;
32295;SDS011;18781;51.550;5.418;2024-03-29T12:55:36;0.60;;;0.50;;
32295;SDS011;18781;51.550;5.418;2024-03-29T12:58:04;0.88;;;0.60;;
32295;SDS011;18781;51.550;5.418;2024-03-29T13:00:34;1.67;;;0.60;;
32295;SDS011;18781;51.550;5.418;2024-03-29T13:05:29;1.13;;;0.60;;
32295;SDS011;18781;51.550;5.418;2024-03-29T13:08:00;3.25;;;0.63;;
32295;SDS011;18781;51.550;5.418;2024-03-29T13:10:26;5.85;;;0.80;;
32295;SDS011;18781;51.550;5.418;2024-03-29T13:12:52;1.55;;;0.70;;
32295;SDS011;18781;51.550;5.418;2024-03-29T13:15:21;0.98;;;0.60;;
32295;SDS011;18781;51.550;5.418;2024-03-29T13:17:50;4.88;;;0.70;;
32295;SDS011;18781;51.550;5.418;2024-03-29T13:20:17;1.92;;;0.80;;
32295;SDS011;18781;51.550;5.418;2024-03-29T13:22:44;1.88;;;0.60;;
32295;SDS011;18781;51.550;5.418;2024-03-29T13:25:13;1.98;;;0.70;;
32295;SDS011;18781;51.550;5.418;2024-03-29T13:30:07;2.75;;;0.70;;
32295;SDS011;18781;51.550;5.418;2024-03-29T13:32:36;2.13;;;0.80;;
32295;SDS011;18781;51.550;5.418;2024-03-29T13:35:03;0.55;;;0.55;;
32295;SDS011;18781;51.550;5.418;2024-03-29T13:37:34;0.95;;;0.50;;
32295;SDS011;18781;51.550;5.418;2024-03-29T13:40:02;1.42;;;0.50;;
32295;SDS011;18781;51.550;5.418;2024-03-29T13:42:29;2.50;;;0.50;;
32295;SDS011;18781;51.550;5.418;2024-03-29T13:44:54;1.92;;;0.70;;
32295;SDS011;18781;51.550;5.418;2024-03-29T13:47:20;3.65;;;0.50;;
32295;SDS011;18781;51.550;5.418;2024-03-29T13:49:45;2.35;;;0.75;;
32295;SDS011;18781;51.550;5.418;2024-03-29T13:52:14;1.73;;;0.80;;
32295;SDS011;18781;51.550;5.418;2024-03-29T13:57:11;6.07;;;0.68;;
32295;SDS011;18781;51.550;5.418;2024-03-29T13:59:37;2.75;;;0.60;;
32295;SDS011;18781;51.550;5.418;2024-03-29T14:02:03;1.13;;;0.60;;
32295;SDS011;18781;51.550;5.418;2024-03-29T14:04:29;0.85;;;0.47;;
32295;SDS011;18781;51.550;5.418;2024-03-29T14:06:56;1.95;;;0.63;;
32295;SDS011;18781;51.550;5.418;2024-03-29T14:09:21;1.33;;;0.50;;
32295;SDS011;18781;51.550;5.418;2024-03-29T14:11:47;2.90;;;0.70;;
32295;SDS011;18781;51.550;5.418;2024-03-29T14:14:13;1.48;;;0.50;;
32295;SDS011;18781;51.550;5.418;2024-03-29T14:16:38;1.52;;;0.68;;
32295;SDS011;18781;51.550;5.418;2024-03-29T14:19:04;1.80;;;0.63;;
32295;SDS011;18781;51.550;5.418;2024-03-29T14:21:29;1.45;;;0.70;;
32295;SDS011;18781;51.550;5.418;2024-03-29T14:23:58;1.70;;;0.60;;
32295;SDS011;18781;51.550;5.418;2024-03-29T14:26:24;3.08;;;0.60;;
32295;SDS011;18781;51.550;5.418;2024-03-29T14:28:50;3.40;;;0.57;;
32295;SDS011;18781;51.550;5.418;2024-03-29T14:31:15;2.92;;;0.50;;
32295;SDS011;18781;51.550;5.418;2024-03-29T14:33:41;0.90;;;0.60;;
32295;SDS011;18781;51.550;5.418;2024-03-29T14:36:07;1.13;;;0.47;;
32295;SDS011;18781;51.550;5.418;2024-03-29T14:38:32;2.15;;;0.63;;
32295;SDS011;18781;51.550;5.418;2024-03-29T14:40:58;2.25;;;0.55;;
32295;SDS011;18781;51.550;5.418;2024-03-29T14:43:23;0.75;;;0.32;;
32295;SDS011;18781;51.550;5.418;2024-03-29T14:45:49;3.45;;;0.60;;
32295;SDS011;18781;51.550;5.418;2024-03-29T14:48:15;3.08;;;0.60;;
32295;SDS011;18781;51.550;5.418;2024-03-29T14:50:41;0.77;;;0.40;;
32295;SDS011;18781;51.550;5.418;2024-03-29T14:53:07;1.83;;;0.47;;
32295;SDS011;18781;51.550;5.418;2024-03-29T14:55:33;0.82;;;0.60;;
32295;SDS011;18781;51.550;5.418;2024-03-29T14:58:01;0.90;;;0.50;;
32295;SDS011;18781;51.550;5.418;2024-03-29T15:00:27;1.23;;;0.55;;
32295;SDS011;18781;51.550;5.418;2024-03-29T15:02:53;1.63;;;0.55;;
32295;SDS011;18781;51.550;5.418;2024-03-29T15:05:18;1.05;;;0.47;;
32295;SDS011;18781;51.550;5.418;2024-03-29T15:07:44;3.28;;;0.60;;